sensor_id;sensor_type;location;lat;lon;timestamp;pressure;altitude;pressure_sealevel;temperature;humidity
64294;BME280;50636;45.596;5.258;2022-12-07T00:01:28;98859.94;;;6.23;67.95
64294;BME280;50636;45.596;5.258;2022-12-07T00:03:57;98859.31;;;6.21;67.62
64294;BME280;50636;45.596;5.258;2022-12-07T00:06:29;98859.81;;;6.16;67.75
64294;BME280;50636;45.596;5.258;2022-12-07T00:08:54;98865.06;;;6.08;68.23
64294;BME280;50636;45.596;5.258;2022-12-07T00:11:21;98847.13;;;6.05;67.60
64294;BME280;50636;45.596;5.258;2022-12-07T00:13:58;98845.03;;;6.00;67.69
64294;BME280;50636;45.596;5.258;2022-12-07T00:16:26;98854.16;;;5.96;67.75
64294;BME280;50636;45.596;5.258;2022-12-07T00:18:52;98852.72;;;5.86;67.64
64294;BME280;50636;45.596;5.258;2022-12-07T00:21:21;98858.88;;;5.85;68.08
64294;BME280;50636;45.596;5.258;2022-12-07T00:23:48;98848.94;;;5.88;68.67
64294;BME280;50636;45.596;5.258;2022-12-07T00:26:17;98855.97;;;5.88;68.64
64294;BME280;50636;45.596;5.258;2022-12-07T00:28:50;98849.25;;;5.85;69.07
64294;BME280;50636;45.596;5.258;2022-12-07T00:31:18;98851.03;;;5.93;69.51
64294;BME280;50636;45.596;5.258;2022-12-07T00:33:44;98844.56;;;5.97;69.33
64294;BME280;50636;45.596;5.258;2022-12-07T00:36:17;98846.34;;;6.05;69.33
64294;BME280;50636;45.596;5.258;2022-12-07T00:38:43;98856.84;;;6.28;69.22
64294;BME280;50636;45.596;5.258;2022-12-07T00:41:14;98853.03;;;6.47;68.88
64294;BME280;50636;45.596;5.258;2022-12-07T00:43:41;98848.22;;;6.67;68.96
64294;BME280;50636;45.596;5.258;2022-12-07T00:46:07;98843.44;;;6.78;68.81
64294;BME280;50636;45.596;5.258;2022-12-07T00:48:33;98843.38;;;6.87;68.46
64294;BME280;50636;45.596;5.258;2022-12-07T00:50:59;98848.44;;;6.80;68.44
64294;BME280;50636;45.596;5.258;2022-12-07T00:53:26;98840.50;;;6.73;67.67
64294;BME280;50636;45.596;5.258;2022-12-07T00:55:52;98835.00;;;6.68;68.20
64294;BME280;50636;45.596;5.258;2022-12-07T00:58:21;98818.94;;;6.56;67.42
64294;BME280;50636;45.596;5.258;2022-12-07T01:00:47;98820.75;;;6.48;67.51
64294;BME280;50636;45.596;5.258;2022-12-07T01:03:14;98823.22;;;6.41;67.81
64294;BME280;50636;45.596;5.258;2022-12-07T01:05:49;98833.69;;;6.33;68.50
64294;BME280;50636;45.596;5.258;2022-12-07T01:08:15;98830.47;;;6.23;68.22
64294;BME280;50636;45.596;5.258;2022-12-07T01:10:41;98838.34;;;6.06;68.51
64294;BME280;50636;45.596;5.258;2022-12-07T01:13:06;98832.00;;;6.00;69.30
64294;BME280;50636;45.596;5.258;2022-12-07T01:15:32;98835.59;;;6.08;69.04
64294;BME280;50636;45.596;5.258;2022-12-07T01:17:57;98834.94;;;6.06;68.86
64294;BME280;50636;45.596;5.258;2022-12-07T01:20:23;98845.81;;;6.09;68.67
64294;BME280;50636;45.596;5.258;2022-12-07T01:22:49;98844.84;;;6.10;68.86
64294;BME280;50636;45.596;5.258;2022-12-07T01:25:14;98840.97;;;6.06;69.15
64294;BME280;50636;45.596;5.258;2022-12-07T01:27:40;98843.56;;;6.06;69.34
64294;BME280;50636;45.596;5.258;2022-12-07T01:30:06;98844.88;;;6.02;69.33
64294;BME280;50636;45.596;5.258;2022-12-07T01:32:32;98835.78;;;5.98;69.47
64294;BME280;50636;45.596;5.258;2022-12-07T01:34:58;98839.97;;;6.07;69.83
64294;BME280;50636;45.596;5.258;2022-12-07T01:37:24;98835.53;;;6.24;69.68
64294;BME280;50636;45.596;5.258;2022-12-07T01:39:51;98842.00;;;6.36;69.82
64294;BME280;50636;45.596;5.258;2022-12-07T01:42:17;98845.72;;;6.42;69.57
64294;BME280;50636;45.596;5.258;2022-12-07T01:47:44;98849.34;;;6.33;69.92
64294;BME280;50636;45.596;5.258;2022-12-07T01:50:11;98847.00;;;6.46;69.85
64294;BME280;50636;45.596;5.258;2022-12-07T01:52:38;98850.25;;;6.48;69.32
64294;BME280;50636;45.596;5.258;2022-12-07T01:55:09;98843.16;;;6.34;68.23
64294;BME280;50636;45.596;5.258;2022-12-07T01:57:40;98845.31;;;6.22;68.62
64294;BME280;50636;45.596;5.258;2022-12-07T02:00:07;98837.97;;;6.17;69.24
64294;BME280;50636;45.596;5.258;2022-12-07T02:02:39;98840.63;;;6.09;68.65
64294;BME280;50636;45.596;5.258;2022-12-07T02:05:07;98845.50;;;6.12;69.48
64294;BME280;50636;45.596;5.258;2022-12-07T02:07:34;98849.91;;;6.12;68.82
64294;BME280;50636;45.596;5.258;2022-12-07T02:10:22;98846.00;;;6.16;68.85
64294;BME280;50636;45.596;5.258;2022-12-07T02:12:52;98841.91;;;6.13;68.78
64294;BME280;50636;45.596;5.258;2022-12-07T02:15:21;98840.16;;;5.97;68.02
64294;BME280;50636;45.596;5.258;2022-12-07T02:18:09;98839.03;;;5.92;68.75
64294;BME280;50636;45.596;5.258;2022-12-07T02:26:38;98842.94;;;5.96;69.68
64294;BME280;50636;45.596;5.258;2022-12-07T02:29:21;98844.03;;;6.02;68.84
64294;BME280;50636;45.596;5.258;2022-12-07T02:32:39;98840.63;;;6.01;69.14
64294;BME280;50636;45.596;5.258;2022-12-07T02:34:50;98845.84;;;5.93;69.27
64294;BME280;50636;45.596;5.258;2022-12-07T02:42:50;98835.09;;;6.04;69.09
64294;BME280;50636;45.596;5.258;2022-12-07T02:45:20;98832.50;;;6.04;69.10
64294;BME280;50636;45.596;5.258;2022-12-07T02:47:48;98822.06;;;6.04;69.10
64294;BME280;50636;45.596;5.258;2022-12-07T02:50:19;98830.06;;;6.03;69.04
64294;BME280;50636;45.596;5.258;2022-12-07T02:52:45;98833.16;;;5.98;68.64
64294;BME280;50636;45.596;5.258;2022-12-07T02:55:11;98823.19;;;6.02;69.01
64294;BME280;50636;45.596;5.258;2022-12-07T03:00:16;98812.91;;;6.16;68.37
64294;BME280;50636;45.596;5.258;2022-12-07T03:08:43;98805.22;;;6.23;68.88
64294;BME280;50636;45.596;5.258;2022-12-07T03:11:14;98811.25;;;6.24;68.09
64294;BME280;50636;45.596;5.258;2022-12-07T03:13:54;98810.94;;;6.18;68.58
64294;BME280;50636;45.596;5.258;2022-12-07T03:16:27;98807.31;;;6.28;68.37
64294;BME280;50636;45.596;5.258;2022-12-07T03:19:08;98805.97;;;6.40;68.06
64294;BME280;50636;45.596;5.258;2022-12-07T03:21:40;98806.91;;;6.47;67.60
64294;BME280;50636;45.596;5.258;2022-12-07T03:24:14;98802.66;;;6.54;68.00
64294;BME280;50636;45.596;5.258;2022-12-07T03:26:53;98801.78;;;6.62;68.07
64294;BME280;50636;45.596;5.258;2022-12-07T03:29:26;98805.38;;;6.61;67.53
64294;BME280;50636;45.596;5.258;2022-12-07T03:32:15;98797.91;;;6.58;67.88
64294;BME280;50636;45.596;5.258;2022-12-07T03:34:53;98806.13;;;6.70;67.39
64294;BME280;50636;45.596;5.258;2022-12-07T03:37:31;98806.22;;;6.85;67.44
64294;BME280;50636;45.596;5.258;2022-12-07T03:40:11;98802.28;;;6.89;67.37
64294;BME280;50636;45.596;5.258;2022-12-07T03:42:38;98799.84;;;6.87;67.27
64294;BME280;50636;45.596;5.258;2022-12-07T03:45:04;98804.31;;;6.78;67.00
64294;BME280;50636;45.596;5.258;2022-12-07T03:47:35;98809.09;;;6.67;67.32
64294;BME280;50636;45.596;5.258;2022-12-07T03:50:11;98807.00;;;6.62;67.28
64294;BME280;50636;45.596;5.258;2022-12-07T03:53:00;98808.63;;;6.63;67.47
64294;BME280;50636;45.596;5.258;2022-12-07T03:55:31;98805.00;;;6.72;67.86
64294;BME280;50636;45.596;5.258;2022-12-07T03:58:05;98806.13;;;6.70;67.42
64294;BME280;50636;45.596;5.258;2022-12-07T04:00:32;98796.97;;;6.74;67.29
64294;BME280;50636;45.596;5.258;2022-12-07T04:02:58;98794.56;;;6.72;67.50
64294;BME280;50636;45.596;5.258;2022-12-07T04:05:23;98796.81;;;6.75;67.65
64294;BME280;50636;45.596;5.258;2022-12-07T04:07:50;98789.69;;;6.69;67.71
64294;BME280;50636;45.596;5.258;2022-12-07T04:10:15;98789.69;;;6.69;67.52
64294;BME280;50636;45.596;5.258;2022-12-07T04:12:41;98789.19;;;6.66;67.88
64294;BME280;50636;45.596;5.258;2022-12-07T04:15:07;98790.88;;;6.58;67.25
64294;BME280;50636;45.596;5.258;2022-12-07T04:17:33;98795.09;;;6.59;68.00
64294;BME280;50636;45.596;5.258;2022-12-07T04:19:58;98789.63;;;6.54;67.26
64294;BME280;50636;45.596;5.258;2022-12-07T04:22:24;98782.69;;;6.38;67.52
64294;BME280;50636;45.596;5.258;2022-12-07T04:24:50;98779.28;;;6.30;67.71
64294;BME280;50636;45.596;5.258;2022-12-07T04:27:15;98783.56;;;6.23;68.32
64294;BME280;50636;45.596;5.258;2022-12-07T04:29:41;98787.16;;;6.22;67.88
64294;BME280;50636;45.596;5.258;2022-12-07T04:32:06;98780.66;;;6.17;68.48
64294;BME280;50636;45.596;5.258;2022-12-07T04:34:32;98780.00;;;6.15;68.50
64294;BME280;50636;45.596;5.258;2022-12-07T04:36:57;98782.88;;;6.29;69.06
64294;BME280;50636;45.596;5.258;2022-12-07T04:39:28;98777.63;;;6.37;69.25
64294;BME280;50636;45.596;5.258;2022-12-07T04:41:55;98773.88;;;6.39;68.15
64294;BME280;50636;45.596;5.258;2022-12-07T04:44:22;98775.34;;;6.42;68.73
64294;BME280;50636;45.596;5.258;2022-12-07T04:46:49;98772.53;;;6.44;69.39
64294;BME280;50636;45.596;5.258;2022-12-07T04:49:15;98778.28;;;6.39;69.29
64294;BME280;50636;45.596;5.258;2022-12-07T04:51:43;98778.28;;;6.39;70.40
64294;BME280;50636;45.596;5.258;2022-12-07T04:54:09;98777.47;;;6.38;69.77
64294;BME280;50636;45.596;5.258;2022-12-07T04:56:34;98776.47;;;6.39;70.36
64294;BME280;50636;45.596;5.258;2022-12-07T04:59:01;98775.34;;;6.42;70.04
64294;BME280;50636;45.596;5.258;2022-12-07T05:01:27;98774.22;;;6.36;70.15
64294;BME280;50636;45.596;5.258;2022-12-07T05:03:52;98772.59;;;6.35;70.26
64294;BME280;50636;45.596;5.258;2022-12-07T05:06:19;98776.03;;;6.28;71.19
64294;BME280;50636;45.596;5.258;2022-12-07T05:08:44;98770.34;;;6.32;70.77
64294;BME280;50636;45.596;5.258;2022-12-07T05:11:10;98769.19;;;6.35;70.50
64294;BME280;50636;45.596;5.258;2022-12-07T05:13:59;98775.97;;;6.44;70.74
64294;BME280;50636;45.596;5.258;2022-12-07T05:16:25;98775.47;;;6.49;70.25
64294;BME280;50636;45.596;5.258;2022-12-07T05:18:51;98780.63;;;6.57;70.98
64294;BME280;50636;45.596;5.258;2022-12-07T05:21:16;98778.59;;;6.67;70.17
64294;BME280;50636;45.596;5.258;2022-12-07T05:23:42;98771.16;;;6.64;70.40
64294;BME280;50636;45.596;5.258;2022-12-07T05:26:07;98774.25;;;6.59;69.89
64294;BME280;50636;45.596;5.258;2022-12-07T05:28:33;98765.88;;;6.41;69.49
64294;BME280;50636;45.596;5.258;2022-12-07T05:30:59;98771.16;;;6.33;70.04
64294;BME280;50636;45.596;5.258;2022-12-07T05:33:24;98758.91;;;6.33;70.54
64294;BME280;50636;45.596;5.258;2022-12-07T05:35:50;98759.06;;;6.40;70.28
64294;BME280;50636;45.596;5.258;2022-12-07T05:38:16;98759.66;;;6.50;70.46
64294;BME280;50636;45.596;5.258;2022-12-07T05:40:41;98754.50;;;6.65;70.48
64294;BME280;50636;45.596;5.258;2022-12-07T05:43:07;98755.50;;;6.64;70.64
64294;BME280;50636;45.596;5.258;2022-12-07T05:45:32;98751.56;;;6.68;69.74
64294;BME280;50636;45.596;5.258;2022-12-07T05:47:58;98755.88;;;6.76;69.58
64294;BME280;50636;45.596;5.258;2022-12-07T05:50:24;98755.88;;;6.76;68.94
64294;BME280;50636;45.596;5.258;2022-12-07T05:52:49;98746.63;;;6.73;68.88
64294;BME280;50636;45.596;5.258;2022-12-07T05:55:15;98751.66;;;6.75;69.04
64294;BME280;50636;45.596;5.258;2022-12-07T05:57:41;98748.47;;;6.65;68.88
64294;BME280;50636;45.596;5.258;2022-12-07T06:00:26;98744.22;;;6.64;68.80
64294;BME280;50636;45.596;5.258;2022-12-07T06:02:52;98742.91;;;6.68;68.99
64294;BME280;50636;45.596;5.258;2022-12-07T06:05:17;98746.34;;;6.68;68.77
64294;BME280;50636;45.596;5.258;2022-12-07T06:07:43;98748.00;;;6.61;68.63
64294;BME280;50636;45.596;5.258;2022-12-07T06:10:09;98743.91;;;6.67;69.00
64294;BME280;50636;45.596;5.258;2022-12-07T06:12:34;98744.44;;;6.62;69.26
64294;BME280;50636;45.596;5.258;2022-12-07T06:15:00;98740.53;;;6.58;69.39
64294;BME280;50636;45.596;5.258;2022-12-07T06:17:26;98746.31;;;6.45;69.27
64294;BME280;50636;45.596;5.258;2022-12-07T06:19:51;98742.72;;;6.46;70.04
64294;BME280;50636;45.596;5.258;2022-12-07T06:22:17;98748.16;;;6.59;70.04
64294;BME280;50636;45.596;5.258;2022-12-07T06:24:43;98748.13;;;6.68;69.82
64294;BME280;50636;45.596;5.258;2022-12-07T06:27:09;98750.03;;;6.74;69.94
64294;BME280;50636;45.596;5.258;2022-12-07T06:29:35;98745.91;;;6.79;69.61
64294;BME280;50636;45.596;5.258;2022-12-07T06:32:01;98746.31;;;6.91;70.26
64294;BME280;50636;45.596;5.258;2022-12-07T06:34:27;98743.75;;;7.06;70.39
64294;BME280;50636;45.596;5.258;2022-12-07T06:36:53;98744.75;;;7.05;70.00
64294;BME280;50636;45.596;5.258;2022-12-07T06:39:27;98738.97;;;6.95;70.19
64294;BME280;50636;45.596;5.258;2022-12-07T06:41:53;98738.91;;;6.80;69.88
64294;BME280;50636;45.596;5.258;2022-12-07T06:44:20;98736.72;;;6.69;70.59
64294;BME280;50636;45.596;5.258;2022-12-07T06:46:47;98742.25;;;6.66;71.44
64294;BME280;50636;45.596;5.258;2022-12-07T06:49:13;98732.88;;;6.56;71.80
64294;BME280;50636;45.596;5.258;2022-12-07T06:51:39;98732.75;;;6.50;71.96
64294;BME280;50636;45.596;5.258;2022-12-07T06:54:13;98739.50;;;6.44;72.21
64294;BME280;50636;45.596;5.258;2022-12-07T06:56:39;98746.34;;;6.37;72.79
64294;BME280;50636;45.596;5.258;2022-12-07T06:59:06;98738.25;;;6.32;73.51
64294;BME280;50636;45.596;5.258;2022-12-07T07:01:33;98740.66;;;6.33;73.64
64294;BME280;50636;45.596;5.258;2022-12-07T07:03:59;98741.53;;;6.26;75.02
64294;BME280;50636;45.596;5.258;2022-12-07T07:06:25;98742.69;;;6.23;75.64
64294;BME280;50636;45.596;5.258;2022-12-07T07:08:51;98733.94;;;6.16;75.84
64294;BME280;50636;45.596;5.258;2022-12-07T07:11:17;98744.03;;;6.11;76.87
64294;BME280;50636;45.596;5.258;2022-12-07T07:13:42;98740.63;;;6.10;76.21
64294;BME280;50636;45.596;5.258;2022-12-07T07:16:08;98738.06;;;6.02;76.83
64294;BME280;50636;45.596;5.258;2022-12-07T07:18:34;98738.56;;;5.97;77.24
64294;BME280;50636;45.596;5.258;2022-12-07T07:21:00;98739.69;;;6.03;77.92
64294;BME280;50636;45.596;5.258;2022-12-07T07:23:26;98748.56;;;6.17;77.79
64294;BME280;50636;45.596;5.258;2022-12-07T07:25:52;98745.44;;;6.22;78.17
64294;BME280;50636;45.596;5.258;2022-12-07T07:28:18;98748.56;;;6.17;77.78
64294;BME280;50636;45.596;5.258;2022-12-07T07:30:43;98753.78;;;6.17;78.48
64294;BME280;50636;45.596;5.258;2022-12-07T07:33:10;98756.56;;;6.15;79.15
64294;BME280;50636;45.596;5.258;2022-12-07T07:35:36;98764.72;;;6.12;79.64
64294;BME280;50636;45.596;5.258;2022-12-07T07:38:02;98760.69;;;6.02;80.58
64294;BME280;50636;45.596;5.258;2022-12-07T07:40:28;98762.16;;;6.04;81.02
64294;BME280;50636;45.596;5.258;2022-12-07T07:42:54;98768.50;;;6.10;81.15
64294;BME280;50636;45.596;5.258;2022-12-07T07:45:22;98766.09;;;5.92;81.04
64294;BME280;50636;45.596;5.258;2022-12-07T07:47:48;98771.31;;;5.84;81.83
64294;BME280;50636;45.596;5.258;2022-12-07T07:50:14;98772.63;;;5.88;84.02
64294;BME280;50636;45.596;5.258;2022-12-07T07:52:41;98775.03;;;5.89;84.96
64294;BME280;50636;45.596;5.258;2022-12-07T07:55:07;98773.28;;;5.82;85.09
64294;BME280;50636;45.596;5.258;2022-12-07T07:57:35;98780.59;;;5.78;86.79
64294;BME280;50636;45.596;5.258;2022-12-07T08:00:03;98771.97;;;5.86;87.21
64294;BME280;50636;45.596;5.258;2022-12-07T08:02:29;98785.44;;;5.97;88.00
64294;BME280;50636;45.596;5.258;2022-12-07T08:04:55;98778.78;;;5.95;88.22
64294;BME280;50636;45.596;5.258;2022-12-07T08:07:20;98776.78;;;6.05;88.81
64294;BME280;50636;45.596;5.258;2022-12-07T08:09:46;98778.56;;;6.13;89.06
64294;BME280;50636;45.596;5.258;2022-12-07T08:12:12;98790.81;;;6.04;89.45
64294;BME280;50636;45.596;5.258;2022-12-07T08:14:37;98782.34;;;5.94;90.19
64294;BME280;50636;45.596;5.258;2022-12-07T08:17:03;98787.56;;;5.94;90.84
64294;BME280;50636;45.596;5.258;2022-12-07T08:19:29;98793.25;;;5.97;91.76
64294;BME280;50636;45.596;5.258;2022-12-07T08:21:55;98792.44;;;5.97;91.83
64294;BME280;50636;45.596;5.258;2022-12-07T08:24:22;98794.25;;;5.96;92.09
64294;BME280;50636;45.596;5.258;2022-12-07T08:26:47;98788.69;;;5.99;92.54
64294;BME280;50636;45.596;5.258;2022-12-07T08:29:15;98794.03;;;6.14;93.25
64294;BME280;50636;45.596;5.258;2022-12-07T08:31:41;98786.47;;;6.28;93.20
64294;BME280;50636;45.596;5.258;2022-12-07T08:34:07;98782.56;;;6.32;92.88
64294;BME280;50636;45.596;5.258;2022-12-07T08:36:32;98786.13;;;6.31;92.45
64294;BME280;50636;45.596;5.258;2022-12-07T08:38:58;98777.69;;;6.29;93.25
64294;BME280;50636;45.596;5.258;2022-12-07T08:41:24;98787.09;;;6.38;94.03
64294;BME280;50636;45.596;5.258;2022-12-07T08:43:51;98781.41;;;6.34;93.59
64294;BME280;50636;45.596;5.258;2022-12-07T08:49:04;98787.78;;;6.32;94.32
64294;BME280;50636;45.596;5.258;2022-12-07T08:51:31;98795.28;;;6.27;94.06
64294;BME280;50636;45.596;5.258;2022-12-07T08:53:59;98793.00;;;6.24;94.98
64294;BME280;50636;45.596;5.258;2022-12-07T08:56:26;98789.22;;;6.34;94.95
64294;BME280;50636;45.596;5.258;2022-12-07T08:58:53;98793.41;;;6.44;95.12
64294;BME280;50636;45.596;5.258;2022-12-07T09:01:18;98791.47;;;6.37;94.62
64294;BME280;50636;45.596;5.258;2022-12-07T09:03:44;98788.88;;;6.37;94.80
64294;BME280;50636;45.596;5.258;2022-12-07T09:06:10;98785.94;;;6.40;95.95
64294;BME280;50636;45.596;5.258;2022-12-07T09:08:42;98791.81;;;6.34;95.31
64294;BME280;50636;45.596;5.258;2022-12-07T09:11:09;98789.72;;;6.30;95.32
64294;BME280;50636;45.596;5.258;2022-12-07T09:13:35;98791.47;;;6.37;96.30
64294;BME280;50636;45.596;5.258;2022-12-07T09:16:00;98789.69;;;6.38;96.71
64294;BME280;50636;45.596;5.258;2022-12-07T09:18:26;98788.06;;;6.37;96.55
64294;BME280;50636;45.596;5.258;2022-12-07T09:20:52;98781.00;;;6.46;97.13
64294;BME280;50636;45.596;5.258;2022-12-07T09:23:17;98786.66;;;6.57;96.98
64294;BME280;50636;45.596;5.258;2022-12-07T09:25:43;98789.56;;;6.86;98.42
64294;BME280;50636;45.596;5.258;2022-12-07T09:28:09;98795.00;;;6.76;96.58
64294;BME280;50636;45.596;5.258;2022-12-07T09:30:35;98800.34;;;6.83;97.47
64294;BME280;50636;45.596;5.258;2022-12-07T09:33:01;98790.47;;;6.70;96.46
64294;BME280;50636;45.596;5.258;2022-12-07T09:35:27;98801.50;;;6.80;96.84
64294;BME280;50636;45.596;5.258;2022-12-07T09:37:53;98801.81;;;6.85;96.75
64294;BME280;50636;45.596;5.258;2022-12-07T09:40:20;98796.38;;;6.95;97.28
64294;BME280;50636;45.596;5.258;2022-12-07T09:42:52;98796.78;;;7.07;97.00
64294;BME280;50636;45.596;5.258;2022-12-07T09:45:24;98794.28;;;7.28;97.57
64294;BME280;50636;45.596;5.258;2022-12-07T09:47:51;98798.56;;;7.44;97.03
64294;BME280;50636;45.596;5.258;2022-12-07T09:50:21;98798.31;;;7.54;95.73
64294;BME280;50636;45.596;5.258;2022-12-07T09:52:48;98798.22;;;7.62;94.78
64294;BME280;50636;45.596;5.258;2022-12-07T09:55:26;98800.59;;;7.72;93.61
64294;BME280;50636;45.596;5.258;2022-12-07T09:57:53;98792.41;;;7.75;91.81
64294;BME280;50636;45.596;5.258;2022-12-07T10:00:22;98785.78;;;7.49;90.04
64294;BME280;50636;45.596;5.258;2022-12-07T10:02:59;98786.59;;;7.35;90.20
64294;BME280;50636;45.596;5.258;2022-12-07T10:07:51;98777.97;;;7.49;91.01
64294;BME280;50636;45.596;5.258;2022-12-07T10:10:30;98780.34;;;7.36;88.77
64294;BME280;50636;45.596;5.258;2022-12-07T10:13:05;98778.59;;;7.36;88.68
64294;BME280;50636;45.596;5.258;2022-12-07T10:15:43;98783.00;;;7.51;87.82
64294;BME280;50636;45.596;5.258;2022-12-07T10:21:16;98775.00;;;7.67;86.63
64294;BME280;50636;45.596;5.258;2022-12-07T10:31:42;98755.16;;;8.03;84.18
64294;BME280;50636;45.596;5.258;2022-12-07T10:34:32;98759.50;;;8.10;84.71
64294;BME280;50636;45.596;5.258;2022-12-07T10:37:16;98758.97;;;8.15;85.51
64294;BME280;50636;45.596;5.258;2022-12-07T10:39:55;98756.00;;;8.03;85.36
64294;BME280;50636;45.596;5.258;2022-12-07T10:45:15;98752.38;;;7.74;86.86
64294;BME280;50636;45.596;5.258;2022-12-07T10:47:46;98750.13;;;7.86;87.41
64294;BME280;50636;45.596;5.258;2022-12-07T10:57:55;98725.91;;;8.07;86.05
64294;BME280;50636;45.596;5.258;2022-12-07T11:00:25;98725.06;;;8.07;86.22
64294;BME280;50636;45.596;5.258;2022-12-07T11:08:21;98712.53;;;8.02;83.56
64294;BME280;50636;45.596;5.258;2022-12-07T11:19:14;98703.41;;;8.28;84.62
64294;BME280;50636;45.596;5.258;2022-12-07T11:21:58;98701.84;;;8.33;84.42
64294;BME280;50636;45.596;5.258;2022-12-07T11:24:48;98700.03;;;8.34;83.34
64294;BME280;50636;45.596;5.258;2022-12-07T11:35:54;98696.66;;;8.18;83.90
64294;BME280;50636;45.596;5.258;2022-12-07T11:38:33;98693.38;;;8.31;82.07
64294;BME280;50636;45.596;5.258;2022-12-07T11:41:04;98690.16;;;8.14;78.29
64294;BME280;50636;45.596;5.258;2022-12-07T11:43:53;98690.16;;;7.78;80.11
64294;BME280;50636;45.596;5.258;2022-12-07T11:46:24;98695.38;;;7.78;82.47
64294;BME280;50636;45.596;5.258;2022-12-07T11:48:58;98686.47;;;8.09;82.07
64294;BME280;50636;45.596;5.258;2022-12-07T11:51:28;98685.91;;;8.28;81.08
64294;BME280;50636;45.596;5.258;2022-12-07T11:54:27;98687.59;;;8.36;80.48
64294;BME280;50636;45.596;5.258;2022-12-07T11:56:57;98685.09;;;8.28;78.00
64294;BME280;50636;45.596;5.258;2022-12-07T11:59:36;98688.78;;;8.33;78.79
64294;BME280;50636;45.596;5.258;2022-12-07T12:02:16;98685.34;;;8.33;78.18
64294;BME280;50636;45.596;5.258;2022-12-07T12:07:15;98673.88;;;8.34;78.95
64294;BME280;50636;45.596;5.258;2022-12-07T12:10:06;98679.84;;;8.64;79.42
64294;BME280;50636;45.596;5.258;2022-12-07T12:13:11;98680.91;;;8.70;77.89
64294;BME280;50636;45.596;5.258;2022-12-07T12:25:46;98666.31;;;8.82;76.43
64294;BME280;50636;45.596;5.258;2022-12-07T12:31:31;98666.88;;;8.77;75.01
64294;BME280;50636;45.596;5.258;2022-12-07T12:34:00;98667.06;;;8.76;73.95
64294;BME280;50636;45.596;5.258;2022-12-07T12:39:10;98665.88;;;8.78;73.52
64294;BME280;50636;45.596;5.258;2022-12-07T12:51:43;98658.75;;;8.94;73.00
64294;BME280;50636;45.596;5.258;2022-12-07T12:59:30;98647.38;;;8.80;72.97
64294;BME280;50636;45.596;5.258;2022-12-07T13:15:46;98645.72;;;8.79;71.38
64294;BME280;50636;45.596;5.258;2022-12-07T13:26:42;98625.00;;;9.06;71.91
64294;BME280;50636;45.596;5.258;2022-12-07T13:29:21;98628.19;;;9.01;72.04
64294;BME280;50636;45.596;5.258;2022-12-07T13:31:48;98619.72;;;8.99;71.48
64294;BME280;50636;45.596;5.258;2022-12-07T13:34:34;98613.66;;;8.98;70.41
64294;BME280;50636;45.596;5.258;2022-12-07T13:37:09;98612.47;;;9.01;70.38
64294;BME280;50636;45.596;5.258;2022-12-07T13:39:45;98610.69;;;9.02;68.79
64294;BME280;50636;45.596;5.258;2022-12-07T13:42:25;98605.22;;;9.03;69.88
64294;BME280;50636;45.596;5.258;2022-12-07T13:44:51;98610.06;;;8.99;69.08
64294;BME280;50636;45.596;5.258;2022-12-07T13:47:23;98607.56;;;8.91;67.91
64294;BME280;50636;45.596;5.258;2022-12-07T13:49:55;98612.13;;;8.76;68.08
64294;BME280;50636;45.596;5.258;2022-12-07T13:52:30;98611.09;;;8.77;68.68
64294;BME280;50636;45.596;5.258;2022-12-07T13:55:01;98607.50;;;8.78;69.28
64294;BME280;50636;45.596;5.258;2022-12-07T13:57:29;98605.03;;;8.70;69.11
64294;BME280;50636;45.596;5.258;2022-12-07T13:59:56;98606.69;;;8.77;68.27
64294;BME280;50636;45.596;5.258;2022-12-07T14:02:27;98606.00;;;8.97;67.55
64294;BME280;50636;45.596;5.258;2022-12-07T14:07:34;98608.13;;;9.15;68.33
64294;BME280;50636;45.596;5.258;2022-12-07T14:10:05;98608.19;;;9.22;68.21
64294;BME280;50636;45.596;5.258;2022-12-07T14:12:32;98614.59;;;9.19;67.54
64294;BME280;50636;45.596;5.258;2022-12-07T14:15:01;98610.13;;;9.13;66.58
64294;BME280;50636;45.596;5.258;2022-12-07T14:17:28;98605.34;;;8.88;67.18
64294;BME280;50636;45.596;5.258;2022-12-07T14:22:32;98604.72;;;8.86;67.44
64294;BME280;50636;45.596;5.258;2022-12-07T14:27:53;98607.97;;;8.88;68.48
64294;BME280;50636;45.596;5.258;2022-12-07T14:30:21;98606.63;;;8.99;68.89
64294;BME280;50636;45.596;5.258;2022-12-07T14:33:04;98612.69;;;8.99;68.14
64294;BME280;50636;45.596;5.258;2022-12-07T14:35:31;98611.53;;;8.80;66.99
64294;BME280;50636;45.596;5.258;2022-12-07T14:37:58;98613.00;;;8.62;68.13
64294;BME280;50636;45.596;5.258;2022-12-07T14:40:26;98607.88;;;8.75;67.81
64294;BME280;50636;45.596;5.258;2022-12-07T14:42:58;98611.97;;;8.56;66.29
64294;BME280;50636;45.596;5.258;2022-12-07T14:45:26;98610.09;;;8.50;68.26
64294;BME280;50636;45.596;5.258;2022-12-07T14:47:52;98613.78;;;8.55;68.14
64294;BME280;50636;45.596;5.258;2022-12-07T14:50:19;98613.28;;;8.45;67.15
64294;BME280;50636;45.596;5.258;2022-12-07T14:52:53;98605.47;;;8.30;67.70
64294;BME280;50636;45.596;5.258;2022-12-07T14:55:28;98605.22;;;8.25;68.60
64294;BME280;50636;45.596;5.258;2022-12-07T14:57:54;98612.75;;;8.35;69.22
64294;BME280;50636;45.596;5.258;2022-12-07T15:00:22;98602.53;;;8.40;68.21
64294;BME280;50636;45.596;5.258;2022-12-07T15:02:48;98599.13;;;8.39;68.99
64294;BME280;50636;45.596;5.258;2022-12-07T15:05:15;98595.22;;;8.50;68.85
64294;BME280;50636;45.596;5.258;2022-12-07T15:07:41;98592.38;;;8.45;68.64
64294;BME280;50636;45.596;5.258;2022-12-07T15:10:16;98595.47;;;8.55;68.75
64294;BME280;50636;45.596;5.258;2022-12-07T15:12:43;98587.06;;;8.67;68.49
64294;BME280;50636;45.596;5.258;2022-12-07T15:15:09;98586.13;;;8.74;67.60
64294;BME280;50636;45.596;5.258;2022-12-07T15:17:35;98586.84;;;8.62;66.42
64294;BME280;50636;45.596;5.258;2022-12-07T15:20:01;98582.53;;;8.47;66.80
64294;BME280;50636;45.596;5.258;2022-12-07T15:22:26;98580.81;;;8.18;67.50
64294;BME280;50636;45.596;5.258;2022-12-07T15:24:52;98577.16;;;8.12;68.76
64294;BME280;50636;45.596;5.258;2022-12-07T15:27:18;98571.78;;;8.20;69.15
64294;BME280;50636;45.596;5.258;2022-12-07T15:29:43;98571.88;;;8.27;68.19
64294;BME280;50636;45.596;5.258;2022-12-07T15:32:09;98568.31;;;8.13;68.65
64294;BME280;50636;45.596;5.258;2022-12-07T15:34:35;98577.78;;;8.14;69.23
64294;BME280;50636;45.596;5.258;2022-12-07T15:37:00;98572.81;;;8.19;68.98